Time;durP1;ratioP1;P1;durP2;ratioP2;P2;SDS_P1;SDS_P2;PMS_P1;PMS_P2;Temp;Humidity;BMP_temperature;BMP_pressure;BME280_temperature;BME280_humidity;BME280_pressure;Samples;Min_cycle;Max_cycle;Signal;HPM_P1;HPM_P2
2023/09/15 00:01:40;;;;;;;78.93;5.47;;;;;;;23.10;56.24;100063.75;7308324;19;133114;-40
2023/09/15 00:04:09;;;;;;;33.72;3.13;;;;;;;23.10;55.54;100063.75;7309557;19;129005;-41
2023/09/15 00:06:36;;;;;;;50.53;4.18;;;;;;;23.16;55.22;100078.91;7308387;19;129830;-37
2023/09/15 00:09:03;;;;;;;;;;;;;;;23.20;56.95;100077.69;7309771;19;129505;-39
2023/09/15 00:11:39;;;;;;;69.50;4.78;;;;;;;23.16;55.41;100082.38;7305299;19;129649;-41
2023/09/15 00:14:11;;;;;;;52.78;3.92;;;;;;;23.16;56.52;100089.41;7311624;19;129918;-40
2023/09/15 00:16:41;;;;;;;62.58;4.32;;;;;;;23.17;56.65;100085.84;7309325;19;129568;-41
2023/09/15 00:19:14;;;;;;;35.05;3.33;;;;;;;23.16;56.00;100089.41;7307477;19;129346;-41
2023/09/15 00:21:45;;;;;;;46.67;4.03;;;;;;;23.15;56.76;100090.38;7307877;19;131593;-41
2023/09/15 00:24:11;;;;;;;92.93;6.18;;;;;;;23.16;56.07;100082.38;7306956;19;129191;-44
2023/09/15 00:26:38;;;;;;;85.53;5.97;;;;;;;23.16;55.66;100084.16;7309568;19;129515;-39
2023/09/15 00:29:04;;;;;;;63.47;5.13;;;;;;;23.05;55.66;100068.56;7305865;19;129620;-43
2023/09/15 00:31:32;;;;;;;11.23;2.20;;;;;;;23.15;56.72;100083.31;7306695;19;130967;-39
2023/09/15 00:33:58;;;;;;;41.17;3.75;;;;;;;23.16;55.39;100086.78;7308719;19;129613;-39
2023/09/15 00:36:23;;;;;;;54.23;4.17;;;;;;;23.15;55.44;100087.75;7309428;19;129052;-38
2023/09/15 00:38:49;;;;;;;101.07;6.70;;;;;;;23.14;55.69;100080.84;7306895;19;129155;-35
2023/09/15 00:41:18;;;;;;;10.13;2.20;;;;;;;23.15;56.21;100082.53;7304774;19;131143;-40
2023/09/15 00:43:44;;;;;;;61.63;4.82;;;;;;;23.13;55.30;100080.03;7308608;19;129528;-41
2023/09/15 00:46:12;;;;;;;30.33;3.10;;;;;;;23.13;56.05;100080.03;7309082;19;129142;-40
2023/09/15 00:48:39;;;;;;;35.72;3.40;;;;;;;23.14;55.66;100076.44;7308383;19;130200;-41
2023/09/15 00:51:08;;;;;;;54.58;4.18;;;;;;;23.14;55.22;100075.59;7303272;19;129346;-40
2023/09/15 00:53:37;;;;;;;51.63;3.88;;;;;;;23.14;56.29;100080.84;7314758;19;130017;-40
2023/09/15 00:56:06;;;;;;;89.70;6.03;;;;;;;23.13;55.45;100079.19;7315638;19;129393;-41
2023/09/15 00:58:32;;;;;;;29.73;2.90;;;;;;;23.12;55.68;100072.31;7313125;19;129102;-37
2023/09/15 01:00:59;;;;;;;48.63;3.40;;;;;;;23.10;55.61;100069.00;7312017;19;129238;-45
2023/09/15 01:03:30;;;;;;;45.70;3.72;;;;;;;23.11;55.14;100076.72;7313914;19;129373;-38
2023/09/15 01:05:56;;;;;;;83.82;5.13;;;;;;;23.11;54.96;100070.63;7315302;19;129147;-42
2023/09/15 01:08:22;;;;;;;52.88;3.97;;;;;;;23.10;54.25;100071.63;7315148;19;129438;-41
2023/09/15 01:10:49;;;;;;;32.50;3.03;;;;;;;23.08;55.18;100063.06;7312863;19;129718;-37
2023/09/15 01:13:15;;;;;;;51.33;4.13;;;;;;;23.09;55.05;100062.06;7314035;19;129124;-42
2023/09/15 01:15:52;;;;;;;95.17;5.97;;;;;;;23.09;55.84;100062.06;7313048;19;129334;-39
2023/09/15 01:18:41;;;;;;;55.63;4.00;;;;;;;23.12;56.29;100062.63;7313675;19;131069;-40
2023/09/15 01:21:44;;;;;;;55.30;3.75;;;;;;;23.11;56.18;100065.38;7313393;19;129152;-42
2023/09/15 01:24:29;;;;;;;86.97;5.30;;;;;;;23.09;54.94;100062.91;7315601;19;129102;-42
2023/09/15 01:27:34;;;;;;;72.55;4.75;;;;;;;23.09;55.78;100062.91;7313354;19;129516;-41
2023/09/15 01:30:02;;;;;;;33.78;2.70;;;;;;;23.08;54.75;100068.28;7310720;19;131409;-42
2023/09/15 01:32:29;;;;;;;94.53;5.70;;;;;;;23.09;55.36;100077.81;7314692;19;129374;-41
2023/09/15 01:34:55;;;;;;;38.33;2.83;;;;;;;23.08;54.77;100070.91;7315992;19;128802;-40
2023/09/15 01:37:24;;;;;;;42.57;3.47;;;;;;;23.09;54.31;100075.19;7312118;19;131149;-41
2023/09/15 01:39:52;;;;;;;49.10;3.65;;;;;;;23.07;55.28;100071.91;7312855;19;130862;-39
2023/09/15 01:42:18;;;;;;;55.90;3.97;;;;;;;23.06;55.56;100075.47;7314255;19;129554;-42
2023/09/15 01:44:43;;;;;;;34.33;3.40;;;;;;;23.06;54.71;100071.06;7314683;19;129983;-38
2023/09/15 01:47:12;;;;;;;41.57;3.23;;;;;;;23.08;55.04;100073.53;7312888;19;129187;-39
2023/09/15 01:49:40;;;;;;;41.83;3.40;;;;;;;23.06;55.61;100068.44;7312456;19;129482;-40
2023/09/15 01:52:07;;;;;;;68.97;4.53;;;;;;;23.05;55.16;100065.94;7312005;19;129170;-39
2023/09/15 01:54:34;;;;;;;49.95;3.53;;;;;;;23.07;54.76;100069.28;7315308;19;130294;-41
2023/09/15 01:56:59;;;;;;;27.30;2.40;;;;;;;23.04;54.99;100072.97;7313504;19;128930;-37
2023/09/15 01:59:27;;;;;;;30.50;2.57;;;;;;;23.05;54.42;100077.28;7311355;19;129122;-38
2023/09/15 02:01:53;;;;;;;96.25;5.88;;;;;;;23.06;55.17;100075.47;7311848;19;130354;-39
2023/09/15 02:04:19;;;;;;;49.93;3.50;;;;;;;23.06;54.78;100068.44;7314886;19;129183;-40
2023/09/15 02:06:45;;;;;;;73.47;5.17;;;;;;;23.04;55.04;100064.28;7312419;19;129558;-37
2023/09/15 02:09:17;;;;;;;46.57;3.60;;;;;;;23.05;56.00;100073.81;7312086;19;130544;-41
2023/09/15 02:11:43;;;;;;;61.03;4.20;;;;;;;23.04;54.17;100069.53;7310226;19;129058;-39
2023/09/15 02:14:09;;;;;;;50.20;3.47;;;;;;;23.04;55.24;100069.53;7313912;19;129318;-37
2023/09/15 02:16:35;;;;;;;32.55;3.13;;;;;;;23.04;55.16;100074.75;7312359;19;128731;-41
2023/09/15 02:19:02;;;;;;;56.60;4.20;;;;;;;23.04;53.68;100074.75;7311132;19;129053;-39
2023/09/15 02:21:29;;;;;;;66.95;4.38;;;;;;;23.03;54.50;100073.13;7308051;19;129379;-41
2023/09/15 02:23:58;;;;;;;63.63;4.63;;;;;;;23.03;54.87;100078.38;7312816;19;128855;-41
2023/09/15 02:26:24;;;;;;;57.65;4.15;;;;;;;23.03;54.97;100067.88;7313409;19;130090;-37
2023/09/15 02:28:50;;;;;;;61.47;5.00;;;;;;;22.90;54.99;100047.19;7307630;19;130243;-43
2023/09/15 02:31:16;;;;;;;46.60;3.97;;;;;;;23.02;54.20;100066.22;7311421;19;129466;-38
2023/09/15 02:33:42;;;;;;;64.80;4.47;;;;;;;23.02;55.25;100076.72;7309804;19;129581;-43
2023/09/15 02:36:08;;;;;;;31.07;3.03;;;;;;;23.02;54.31;100066.22;7313328;19;129370;-40
2023/09/15 02:38:34;;;;;;;107.57;7.07;;;;;;;23.02;54.82;100067.03;7307490;19;130107;-41
2023/09/15 02:41:03;;;;;;;56.90;4.10;;;;;;;23.01;56.13;100064.56;7306999;19;130192;-44
2023/09/15 02:43:32;;;;;;;64.10;4.20;;;;;;;23.01;55.50;100078.50;7313173;19;131809;-40
2023/09/15 02:46:04;;;;;;;66.82;4.55;;;;;;;23.01;55.38;100069.81;7312663;19;130028;-43
2023/09/15 02:48:30;;;;;;;36.67;3.33;;;;;;;23.01;54.31;100069.81;7311826;19;130537;-42
2023/09/15 02:50:57;;;;;;;69.97;4.93;;;;;;;23.01;54.88;100080.28;7308166;19;129584;-44
2023/09/15 02:53:25;;;;;;;71.80;4.75;;;;;;;23.01;54.06;100069.81;7312400;19;129040;-40
2023/09/15 02:55:59;;;;;;;57.00;3.95;;;;;;;23.01;55.58;100080.28;7311705;19;129282;-40
2023/09/15 02:58:26;;;;;;;32.60;2.65;;;;;;;22.99;54.50;100083.06;7310770;19;130561;-40
2023/09/15 03:00:51;;;;;;;37.88;3.25;;;;;;;22.99;53.73;100071.75;7308695;19;129458;-40
2023/09/15 03:03:17;;;;;;;69.40;4.57;;;;;;;22.98;54.56;100065.66;7311310;19;130101;-44
2023/09/15 03:05:43;;;;;;;46.93;3.63;;;;;;;22.96;54.01;100062.34;7312430;19;129817;-41
2023/09/15 03:08:09;;;;;;;33.17;2.97;;;;;;;22.98;54.70;100070.06;7310465;19;130425;-37
2023/09/15 03:10:35;;;;;;;30.90;2.87;;;;;;;22.90;54.56;100051.59;7309431;19;130171;-42
2023/09/15 03:13:03;;;;;;;69.50;4.47;;;;;;;22.97;54.58;100063.19;7311471;19;128818;-37
2023/09/15 03:15:39;;;;;;;54.15;4.03;;;;;;;22.86;53.86;100050.19;7309909;19;131150;-41
2023/09/15 03:18:08;;;;;;;59.33;4.70;;;;;;;22.98;53.87;100077.94;7309814;19;129595;-39
2023/09/15 03:20:35;;;;;;;38.75;3.25;;;;;;;22.96;54.87;100072.00;7309001;19;130484;-38
2023/09/15 03:23:01;;;;;;;53.97;3.78;;;;;;;22.97;54.73;100068.44;7311092;19;128814;-41
2023/09/15 03:25:27;;;;;;;78.13;5.30;;;;;;;22.95;53.77;100060.72;7310667;19;129396;-41
2023/09/15 03:27:53;;;;;;;84.13;5.37;;;;;;;22.84;54.27;100042.47;7311572;19;129537;-43
2023/09/15 03:30:19;;;;;;;7.28;1.60;;;;;;;22.96;53.43;100066.75;7308522;19;129449;-43
2023/09/15 03:32:45;;;;;;;43.58;3.60;;;;;;;22.95;53.87;100065.13;7310351;19;129079;-39
2023/09/15 03:35:11;;;;;;;87.97;5.90;;;;;;;22.96;54.14;100061.50;7310793;19;129414;-37
2023/09/15 03:37:40;;;;;;;31.33;3.20;;;;;;;22.95;55.00;100065.13;7311273;19;130420;-39
2023/09/15 03:40:08;;;;;;;34.72;3.05;;;;;;;22.87;54.82;100044.00;7309180;19;129289;-40
2023/09/15 03:42:35;;;;;;;41.22;3.33;;;;;;;22.92;53.14;100060.97;7310604;19;129543;-36
2023/09/15 03:45:04;;;;;;;78.75;4.65;;;;;;;22.94;54.52;100052.97;7311862;19;129143;-38
2023/09/15 03:47:30;;;;;;;33.42;2.90;;;;;;;22.93;54.09;100054.75;7312514;19;129567;-45
2023/09/15 03:49:56;;;;;;;58.27;4.47;;;;;;;22.92;54.40;100058.34;7309451;19;129746;-42
2023/09/15 03:52:22;;;;;;;47.83;3.53;;;;;;;22.93;54.51;100057.38;7308772;19;129976;-42
2023/09/15 03:54:48;;;;;;;99.43;6.30;;;;;;;22.83;53.81;100038.19;7309669;19;129782;-42
2023/09/15 03:57:13;;;;;;;32.83;2.85;;;;;;;22.92;53.87;100053.09;7307507;19;130804;-39
2023/09/15 03:59:39;;;;;;;48.50;3.63;;;;;;;22.92;52.98;100050.47;7308061;19;129556;-39
2023/09/15 04:02:05;;;;;;;27.85;2.75;;;;;;;22.95;52.31;100054.63;7306934;19;129074;-38
2023/09/15 04:04:31;;;;;;;69.33;4.37;;;;;;;22.97;54.19;100057.94;7308294;19;129405;-43
2023/09/15 04:06:57;;;;;;;65.33;4.63;;;;;;;22.95;53.17;100049.38;7308640;19;129323;-41
2023/09/15 04:09:26;;;;;;;22.73;2.53;;;;;;;22.93;53.46;100046.06;7309082;19;130931;-40
2023/09/15 04:11:54;;;;;;;61.03;4.80;;;;;;;22.94;53.17;100050.38;7307789;19;129617;-40
2023/09/15 04:14:19;;;;;;;50.45;3.53;;;;;;;22.83;52.89;100029.50;7306714;19;129519;-41
2023/09/15 04:16:45;;;;;;;40.43;3.23;;;;;;;22.96;52.70;100059.72;7308331;19;129361;-43
2023/09/15 04:19:11;;;;;;;97.00;6.47;;;;;;;22.97;53.27;100056.13;7306575;19;129376;-40
2023/09/15 04:21:38;;;;;;;53.50;3.87;;;;;;;22.96;52.84;100046.63;7305561;19;129711;-40
2023/09/15 04:24:07;;;;;;;107.63;6.60;;;;;;;22.97;54.16;100047.47;7306458;19;129647;-38
2023/09/15 04:26:33;;;;;;;50.25;4.13;;;;;;;22.95;52.72;100055.47;7305198;19;130619;-39
2023/09/15 04:28:59;;;;;;;89.07;6.13;;;;;;;22.95;53.03;100052.00;7305656;19;130204;-44
2023/09/15 04:31:25;;;;;;;42.57;3.73;;;;;;;22.84;54.56;100039.03;7308395;19;129991;-38
2023/09/15 04:33:51;;;;;;;114.57;7.30;;;;;;;22.95;52.25;100054.63;7308794;19;129389;-39
2023/09/15 04:36:17;;;;;;;30.87;2.70;;;;;;;22.95;54.11;100057.25;7309556;19;129389;-38
2023/09/15 04:38:43;;;;;;;45.97;3.57;;;;;;;22.95;53.98;100057.25;7308154;19;129139;-41
2023/09/15 04:41:09;;;;;;;45.72;3.47;;;;;;;22.95;54.62;100054.63;7304687;19;129283;-40
2023/09/15 04:43:35;;;;;;;82.68;5.35;;;;;;;22.95;53.30;100058.09;7309363;19;128904;-42
2023/09/15 04:46:01;;;;;;;94.53;6.18;;;;;;;22.92;53.16;100062.78;7304342;19;130958;-42
2023/09/15 04:48:27;;;;;;;43.70;3.50;;;;;;;22.84;53.88;100052.94;7303193;19;129158;-43
2023/09/15 04:50:53;;;;;;;107.93;7.37;;;;;;;22.93;53.55;100067.03;7296830;19;130927;-44
2023/09/15 04:53:20;;;;;;;70.30;4.63;;;;;;;22.84;53.09;100046.91;7307138;19;130662;-41
2023/09/15 04:55:48;;;;;;;44.67;3.47;;;;;;;22.92;53.17;100065.41;7308021;19;129521;-41
2023/09/15 04:58:17;;;;;;;176.93;11.00;;;;;;;22.92;53.91;100065.41;7300701;19;129884;-42
2023/09/15 05:00:43;;;;;;;44.78;3.75;;;;;;;22.91;52.86;100068.97;7298604;19;131773;-43
2023/09/15 05:03:09;;;;;;;142.47;8.60;;;;;;;22.92;53.04;100068.00;7297789;19;129648;-39
2023/09/15 05:05:35;;;;;;;119.90;7.73;;;;;;;22.93;52.91;100067.03;7293976;19;131121;-37
2023/09/15 05:08:01;;;;;;;65.82;5.35;;;;;;;22.91;52.67;100058.47;7304581;19;130859;-40
2023/09/15 05:10:28;;;;;;;57.38;4.82;;;;;;;22.89;52.20;100060.44;7299650;19;129099;-39
2023/09/15 05:12:53;;;;;;;138.23;8.73;;;;;;;22.83;52.57;100051.31;7299715;19;129714;-41
2023/09/15 05:15:19;;;;;;;83.82;6.25;;;;;;;22.89;52.13;100057.81;7297802;19;131108;-37
2023/09/15 05:17:45;;;;;;;31.43;3.07;;;;;;;22.90;54.42;100064.69;7306704;19;129903;-35
2023/09/15 05:20:12;;;;;;;52.67;3.88;;;;;;;22.76;52.21;100039.69;7296362;19;130899;-41
2023/09/15 05:22:38;;;;;;;155.93;10.00;;;;;;;22.89;52.76;100060.44;7301589;19;128968;-42
2023/09/15 05:25:04;;;;;;;73.87;5.30;;;;;;;22.88;52.41;100064.00;7305600;19;131267;-40
2023/09/15 05:27:34;;;;;;;32.97;3.45;;;;;;;22.89;54.74;100063.06;7306092;19;129598;-40
2023/09/15 05:29:59;;;;;;;59.15;4.57;;;;;;;22.86;52.28;100063.28;7302929;19;129864;-41
2023/09/15 05:32:25;;;;;;;73.80;5.07;;;;;;;22.86;52.47;100065.91;7307959;19;128924;-40
2023/09/15 05:34:51;;;;;;;31.67;2.57;;;;;;;22.86;52.07;100065.91;7303980;19;129190;-35
2023/09/15 05:37:17;;;;;;;35.17;2.85;;;;;;;22.86;51.83;100071.16;7307759;19;129524;-38
2023/09/15 05:39:43;;;;;;;60.77;4.27;;;;;;;22.85;52.53;100074.75;7311638;19;129206;-39
2023/09/15 05:42:08;;;;;;;45.63;3.43;;;;;;;22.85;52.89;100072.13;7313306;19;129366;-41
2023/09/15 05:44:36;;;;;;;70.53;5.07;;;;;;;22.73;53.21;100060.09;7312009;19;129176;-42
2023/09/15 05:47:03;;;;;;;61.97;4.80;;;;;;;22.84;53.37;100078.34;7309062;19;130346;-40
2023/09/15 05:49:28;;;;;;;57.83;4.00;;;;;;;22.83;52.80;100079.31;7312480;19;128864;-43
2023/09/15 05:51:54;;;;;;;75.63;5.20;;;;;;;22.81;52.45;100079.44;7311019;19;128856;-39
2023/09/15 05:54:20;;;;;;;33.23;2.90;;;;;;;22.81;52.03;100089.09;7314067;19;130474;-38
2023/09/15 05:56:46;;;;;;;28.13;2.53;;;;;;;22.81;53.02;100081.22;7307917;19;129234;-39
2023/09/15 05:59:12;;;;;;;92.93;5.83;;;;;;;22.81;52.06;100089.94;7311717;19;129571;-37
2023/09/15 06:01:39;;;;;;;66.27;4.47;;;;;;;22.80;52.27;100087.44;7307370;19;131240;-40
2023/09/15 06:04:07;;;;;;;58.95;4.43;;;;;;;22.80;52.02;100087.44;7311767;19;129940;-42
2023/09/15 06:06:34;;;;;;;45.38;3.60;;;;;;;22.66;52.73;100066.88;7312469;19;129412;-42
2023/09/15 06:08:59;;;;;;;84.25;5.57;;;;;;;22.77;52.33;100079.84;7311237;19;130907;-38
2023/09/15 06:11:25;;;;;;;49.30;3.30;;;;;;;22.77;52.75;100082.47;7313602;19;129667;-44
2023/09/15 06:13:53;;;;;;;41.00;3.20;;;;;;;22.78;53.20;100086.75;7314316;19;129705;-40
2023/09/15 06:16:19;;;;;;;27.58;2.58;;;;;;;22.80;52.32;100092.69;7311397;19;129391;-41
2023/09/15 06:18:45;;;;;;;95.90;6.23;;;;;;;22.77;52.54;100085.09;7310282;19;129441;-37
2023/09/15 06:21:11;;;;;;;36.33;3.13;;;;;;;22.76;52.68;100091.28;7309248;19;129010;-38
2023/09/15 06:23:37;;;;;;;80.35;5.53;;;;;;;22.77;52.50;100093.81;7313225;19;130565;-37
2023/09/15 06:26:04;;;;;;;83.35;5.63;;;;;;;22.76;52.12;100086.88;7310890;19;129765;-39
2023/09/15 06:28:29;;;;;;;111.35;7.35;;;;;;;;;;7304638;19;129416;-42
2023/09/15 06:30:55;;;;;;;64.37;4.67;;;;;;;22.75;51.96;100081.78;7306584;19;128878;-41
2023/09/15 06:33:21;;;;;;;34.27;3.17;;;;;;;22.74;52.87;100077.50;7311421;19;129406;-39
2023/09/15 06:35:53;;;;;;;36.28;3.05;;;;;;;22.62;53.17;100062.84;7312521;19;130375;-37
2023/09/15 06:38:19;;;;;;;77.85;5.10;;;;;;;22.72;52.22;100082.91;7311578;19;129237;-44
2023/09/15 06:40:46;;;;;;;54.23;4.03;;;;;;;22.72;52.65;100082.06;7309842;19;129040;-42
2023/09/15 06:43:13;;;;;;;46.28;3.80;;;;;;;22.71;52.79;100080.41;7310729;19;130149;-37
2023/09/15 06:45:39;;;;;;;37.80;3.75;;;;;;;22.70;52.84;100076.94;7308985;19;129901;-40
2023/09/15 06:48:07;;;;;;;92.63;6.20;;;;;;;22.72;52.75;100074.19;7312583;19;129638;-40
2023/09/15 06:50:33;;;;;;;60.50;4.40;;;;;;;22.69;52.88;100079.72;7304353;19;129879;-39
2023/09/15 06:52:59;;;;;;;64.60;4.53;;;;;;;22.60;52.79;100054.28;7311062;19;129395;-40
2023/09/15 06:55:25;;;;;;;44.95;3.47;;;;;;;22.62;52.13;100068.09;7308069;19;129853;-42
2023/09/15 06:57:51;;;;;;;97.80;6.60;;;;;;;22.69;53.13;100066.59;7305746;19;130418;-42
2023/09/15 07:00:17;;;;;;;37.03;3.40;;;;;;;22.66;52.97;100072.94;7309872;19;129754;-43
2023/09/15 07:02:43;;;;;;;23.63;2.92;;;;;;;22.56;53.02;100058.16;7312249;19;129122;-40
2023/09/15 07:05:11;;;;;;;73.18;5.18;;;;;;;22.68;53.04;100075.41;7309312;19;129295;-39
2023/09/15 07:07:37;;;;;;;76.18;5.00;;;;;;;22.67;52.96;100081.63;7312487;19;129598;-42
2023/09/15 07:10:04;;;;;;;53.50;4.40;;;;;;;22.57;52.43;100051.94;7310567;19;130895;-40
2023/09/15 07:12:30;;;;;;;21.38;2.70;;;;;;;22.67;53.70;100065.91;7312850;19;131514;-36
2023/09/15 07:14:58;;;;;;;55.47;4.30;;;;;;;22.66;53.49;100066.88;7310789;19;129484;-38
2023/09/15 07:17:23;;;;;;;66.05;4.40;;;;;;;22.65;53.56;100066.03;7310595;19;129637;-41
2023/09/15 07:19:49;;;;;;;47.33;3.80;;;;;;;22.66;53.01;100067.69;7309618;19;129612;-40
2023/09/15 07:22:15;;;;;;;30.83;3.03;;;;;;;22.66;53.93;100064.25;7309509;19;129365;-41
2023/09/15 07:24:41;;;;;;;41.37;3.77;;;;;;;;;;7309018;19;130384;-40
2023/09/15 07:27:10;;;;;;;89.23;5.67;;;;;;;22.64;54.40;100060.94;7309039;19;129045;-41
2023/09/15 07:29:37;;;;;;;32.72;3.05;;;;;;;22.65;53.77;100062.59;7311403;19;129317;-40
2023/09/15 07:32:03;;;;;;;;;;;;;;;22.68;54.88;100062.31;7308590;19;129221;-36
2023/09/15 07:34:28;;;;;;;26.20;2.42;;;;;;;22.67;53.81;100058.03;7309878;19;129120;-42
2023/09/15 07:36:54;;;;;;;73.60;5.03;;;;;;;;;;7310380;19;128948;-41
2023/09/15 07:39:20;;;;;;;46.27;3.90;;;;;;;22.55;54.04;100041.59;7299297;19;129985;-40
2023/09/15 07:41:46;;;;;;;19.73;2.37;;;;;;;22.67;53.36;100061.50;7309032;19;129387;-39
2023/09/15 07:44:13;;;;;;;52.70;3.83;;;;;;;22.65;53.66;100057.34;7308680;19;129926;-41
2023/09/15 07:46:39;;;;;;;56.67;4.03;;;;;;;22.64;53.44;100055.69;7308420;19;129120;-41
2023/09/15 07:49:06;;;;;;;98.70;6.88;;;;;;;22.58;54.67;100041.31;7309692;19;130421;-41
2023/09/15 07:51:32;;;;;;;30.58;2.97;;;;;;;22.64;53.66;100050.44;7308377;19;129180;-42
2023/09/15 07:53:58;;;;;;;63.78;4.70;;;;;;;22.65;54.20;100049.47;7309054;19;130446;-39
2023/09/15 07:56:24;;;;;;;98.03;6.27;;;;;;;22.63;54.30;100054.03;7308459;19;129005;-40
2023/09/15 07:58:51;;;;;;;31.10;3.40;;;;;;;22.63;54.31;100044.38;7309350;19;129245;-38
2023/09/15 08:01:17;;;;;;;52.08;4.05;;;;;;;22.64;54.47;100050.44;7306920;19;131040;-41
2023/09/15 08:03:44;;;;;;;;;;;;;;;22.72;55.95;100050.59;7310213;19;130221;-39
2023/09/15 08:06:10;;;;;;;98.07;6.32;;;;;;;;;;7309369;19;129606;-43
2023/09/15 08:08:36;;;;;;;30.87;3.00;;;;;;;22.63;54.24;100046.16;7312458;19;129078;-39
2023/09/15 08:11:02;;;;;;;28.23;3.07;;;;;;;22.60;55.29;100044.66;7307216;19;129721;-41
2023/09/15 08:13:27;;;;;;;37.03;3.07;;;;;;;22.65;54.04;100041.63;7309949;19;129238;-37
2023/09/15 08:15:54;;;;;;;68.47;4.63;;;;;;;22.62;54.88;100042.72;7309305;19;129524;-39
2023/09/15 08:18:21;;;;;;;48.75;4.10;;;;;;;22.64;54.91;100050.44;7308686;19;129260;-40
2023/09/15 08:20:47;;;;;;;34.78;3.22;;;;;;;22.62;54.81;100042.72;7308532;19;129613;-36
2023/09/15 08:23:15;;;;;;;89.33;6.20;;;;;;;22.62;55.14;100041.88;7307595;19;129650;-42
2023/09/15 08:25:42;;;;;;;70.53;4.97;;;;;;;22.63;55.40;100040.91;7306225;19;131005;-41
2023/09/15 08:28:08;;;;;;;61.80;4.90;;;;;;;22.61;54.93;100035.00;7309200;19;129218;-43
2023/09/15 08:30:35;;;;;;;52.30;4.47;;;;;;;22.62;55.39;100032.25;7306856;19;130828;-41
2023/09/15 08:33:02;;;;;;;;;;;;;;;22.70;56.32;100039.41;7309377;19;129357;-38
2023/09/15 08:35:29;;;;;;;67.10;4.87;;;;;;;22.67;54.76;100034.44;7306546;19;129771;-42
2023/09/15 08:37:55;;;;;;;31.65;2.88;;;;;;;22.62;54.88;100031.41;7310525;19;129026;-38
2023/09/15 08:40:21;;;;;;;40.10;3.40;;;;;;;22.62;55.04;100037.50;7306253;19;129286;-39
2023/09/15 08:42:49;;;;;;;15.98;2.67;;;;;;;22.65;55.19;100025.88;7309704;19;129634;-42
2023/09/15 08:45:20;;;;;;;128.10;8.32;;;;;;;22.60;55.07;100033.31;7300797;19;130330;-43
2023/09/15 08:47:49;;;;;;;22.73;2.72;;;;;;;22.65;55.88;100039.00;7309204;19;128998;-38
2023/09/15 08:50:15;;;;;;;66.15;4.72;;;;;;;22.54;54.93;100012.91;7306859;19;129256;-40
2023/09/15 08:52:42;;;;;;;25.95;2.67;;;;;;;22.67;54.93;100029.22;7309140;19;128883;-39
2023/09/15 08:55:08;;;;;;;;;;;;;;;22.57;55.96;100005.63;7304352;19;129236;-42
2023/09/15 08:57:36;;;;;;;67.55;5.22;;;;;;;22.52;54.72;100004.31;7303562;19;129164;-42
2023/09/15 09:00:03;;;;;;;35.08;3.22;;;;;;;22.66;55.03;100024.94;7307652;19;129949;-41
2023/09/15 09:02:32;;;;;;;134.63;9.10;;;;;;;22.68;54.68;100025.63;7301276;19;130464;-39
2023/09/15 09:05:00;;;;;;;64.35;4.53;;;;;;;22.65;54.88;100020.66;7308434;19;129209;-39
2023/09/15 09:07:27;;;;;;;65.82;4.75;;;;;;;22.65;53.91;100025.88;7309376;19;129219;-40
2023/09/15 09:09:53;;;;;;;14.68;2.17;;;;;;;;;;7306922;19;130481;-41
2023/09/15 09:12:20;;;;;;;88.85;5.68;;;;;;;22.63;54.42;100017.31;7305846;19;129403;-39
2023/09/15 09:14:46;;;;;;;142.95;8.85;;;;;;;22.65;55.19;100023.28;7309824;19;130288;-42
2023/09/15 09:17:13;;;;;;;73.45;5.35;;;;;;;22.68;54.63;100030.84;7311522;19;129118;-39
2023/09/15 09:19:46;;;;;;;37.45;3.47;;;;;;;22.55;54.66;100004.91;7314521;19;129261;-41
2023/09/15 09:22:16;;;;;;;46.38;3.78;;;;;;;22.67;55.78;100024.81;7312411;19;129893;-39
2023/09/15 09:24:42;;;;;;;66.22;5.03;;;;;;;22.65;54.69;100011.00;7314909;19;129290;-44
2023/09/15 09:27:09;;;;;;;82.63;5.83;;;;;;;22.68;54.16;100015.13;7315554;19;130814;-44
2023/09/15 09:29:36;;;;;;;45.63;4.00;;;;;;;22.57;53.94;100002.16;7313679;19;129267;-39
2023/09/15 09:32:02;;;;;;;61.75;4.65;;;;;;;22.68;54.64;100017.75;7308262;19;129705;-39
2023/09/15 09:34:28;;;;;;;23.48;2.85;;;;;;;22.68;54.96;100009.88;7315541;19;129358;-42
2023/09/15 09:36:54;;;;;;;76.37;5.00;;;;;;;22.68;54.33;100005.47;7314166;19;129388;-40
2023/09/15 09:39:20;;;;;;;56.70;4.30;;;;;;;22.70;54.41;100013.22;7315157;19;129154;-42
2023/09/15 09:41:46;;;;;;;14.95;2.53;;;;;;;22.69;53.98;100011.56;7310622;19;129998;-43
2023/09/15 09:44:13;;;;;;;74.67;5.67;;;;;;;22.72;54.30;100011.28;7308875;19;129982;-42
2023/09/15 09:46:42;;;;;;;67.18;4.32;;;;;;;22.70;54.90;100005.34;7313399;19;131460;-38
2023/09/15 09:49:09;;;;;;;68.65;5.55;;;;;;;22.60;54.77;99984.38;7313079;19;129273;-39
2023/09/15 09:51:35;;;;;;;33.03;3.03;;;;;;;22.70;53.52;100007.97;7311624;19;131454;-40
2023/09/15 09:54:03;;;;;;;83.30;5.78;;;;;;;22.70;54.64;100000.94;7308724;19;129482;-38
2023/09/15 09:56:32;;;;;;;74.32;4.90;;;;;;;22.71;54.73;100004.41;7312799;19;129392;-43
2023/09/15 09:59:09;;;;;;;42.28;3.70;;;;;;;22.70;56.16;99998.31;7311017;19;131024;-41
2023/09/15 10:01:36;;;;;;;33.05;3.08;;;;;;;22.70;54.35;99981.75;7311128;19;129407;-41
2023/09/15 10:04:05;;;;;;;29.92;3.03;;;;;;;22.71;54.51;99986.06;7310912;19;129512;-40
2023/09/15 10:06:36;;;;;;;49.45;3.53;;;;;;;22.70;55.50;99981.75;7312293;19;130084;-42
2023/09/15 10:09:08;;;;;;;73.20;5.03;;;;;;;22.72;54.71;99985.06;7311628;19;129011;-41
2023/09/15 10:11:35;;;;;;;30.30;3.08;;;;;;;22.72;54.41;99977.22;7312899;19;130332;-41
2023/09/15 10:14:05;;;;;;;25.67;2.58;;;;;;;22.70;55.89;99971.28;7314202;19;129931;-41
2023/09/15 10:16:34;;;;;;;39.72;3.05;;;;;;;22.70;55.74;99982.59;7314132;19;129256;-41
2023/09/15 10:19:03;;;;;;;76.38;5.10;;;;;;;22.70;54.97;99979.13;7306320;19;130150;-40
2023/09/15 10:21:32;;;;;;;64.05;4.43;;;;;;;22.72;54.99;99979.81;7311362;19;129020;-40
2023/09/15 10:24:04;;;;;;;40.13;3.13;;;;;;;22.70;55.52;99966.03;7313496;19;129100;-40
2023/09/15 10:26:30;;;;;;;40.20;3.53;;;;;;;22.71;55.87;99968.50;7313636;19;129099;-37
2023/09/15 10:28:56;;;;;;;;;;;;;;;22.73;55.77;99961.34;7309198;19;129468;-38
2023/09/15 10:31:23;;;;;;;93.70;5.40;;;;;;;22.72;53.92;99974.59;7311162;19;129733;-40
2023/09/15 10:33:50;;;;;;;26.83;2.67;;;;;;;22.75;54.30;99974.31;7313222;19;129330;-39
2023/09/15 10:36:17;;;;;;;49.28;3.72;;;;;;;22.73;54.54;99965.75;7313382;19;128931;-42
2023/09/15 10:38:45;;;;;;;35.95;2.83;;;;;;;22.71;54.40;99957.22;7312696;19;129607;-42
2023/09/15 10:41:11;;;;;;;82.95;5.57;;;;;;;22.62;54.96;99943.13;7309127;19;129799;-43
2023/09/15 10:43:50;;;;;;;21.80;2.37;;;;;;;22.71;56.40;99963.25;7314032;19;129564;-43
2023/09/15 10:46:16;;;;;;;38.13;3.22;;;;;;;22.74;55.16;99962.19;7312833;19;128930;-38
2023/09/15 10:48:46;;;;;;;35.13;2.73;;;;;;;22.72;55.08;99964.09;7311357;19;129282;-42
2023/09/15 10:51:17;;;;;;;67.78;4.32;;;;;;;22.73;55.03;99961.34;7306511;19;130023;-43
2023/09/15 10:54:00;;;;;;;91.28;5.53;;;;;;;22.74;56.07;99964.81;7307634;19;129583;-40
2023/09/15 10:56:26;;;;;;;87.68;5.50;;;;;;;22.74;54.33;99968.22;7312166;19;129835;-38
2023/09/15 10:58:54;;;;;;;41.25;3.20;;;;;;;22.60;55.48;99946.84;7309193;19;130140;-41
2023/09/15 11:01:20;;;;;;;59.60;4.38;;;;;;;22.73;53.91;99971.00;7305918;19;130104;-42
2023/09/15 11:03:46;;;;;;;56.33;4.17;;;;;;;22.72;53.30;99958.88;7309305;19;129247;-41
2023/09/15 11:06:13;;;;;;;70.60;5.10;;;;;;;22.75;54.29;99958.56;7311571;19;129492;-36
2023/09/15 11:08:39;;;;;;;36.17;2.88;;;;;;;22.76;54.27;99957.59;7312729;19;129192;-37
2023/09/15 11:11:12;;;;;;;17.57;2.00;;;;;;;22.73;53.78;99950.03;7308333;19;129336;-39
2023/09/15 11:13:40;;;;;;;56.75;4.13;;;;;;;22.75;53.41;99955.97;7310923;19;129092;-40
2023/09/15 11:16:07;;;;;;;92.65;5.88;;;;;;;22.76;54.08;99957.59;7310555;19;129126;-40